createdAt,value
2022-09-04T00:00:00.000Z,2.06
2022-09-04T00:15:00.000Z,1.85
2022-09-04T00:30:00.000Z,2.09
2022-09-04T00:45:00.000Z,1.81
2022-09-04T01:00:00.000Z,1.71
2022-09-04T01:15:00.000Z,1.75
2022-09-04T01:30:00.000Z,1.88
2022-09-04T01:45:00.000Z,2.02
2022-09-04T02:15:00.000Z,1
2022-09-04T02:30:00.000Z,3
2022-09-04T02:30:00.000Z,2.16
2022-09-04T02:45:00.000Z,2.29
2022-09-04T03:00:00.000Z,1.67
2022-09-04T03:15:00.000Z,2.09
2022-09-04T03:30:00.000Z,1.68
2022-09-04T03:45:00.000Z,1.87
2022-09-04T04:00:00.000Z,2.51
2022-09-04T04:15:00.000Z,2.06
2022-09-04T04:30:00.000Z,1.89
2022-09-04T04:45:00.000Z,1.72
2022-09-04T05:00:00.000Z,2.53
2022-09-04T05:15:00.000Z,2.15
2022-09-04T05:30:00.000Z,1.8
2022-09-04T05:45:00.000Z,3.24
2022-09-04T06:00:00.000Z,1.65
2022-09-04T06:15:00.000Z,1.61
2022-09-04T06:30:00.000Z,1.85
2022-09-04T06:45:00.000Z,1.58
2022-09-04T07:00:00.000Z,1.84
2022-09-04T07:15:00.000Z,1.39
2022-09-04T07:30:00.000Z,1.59
2022-09-04T07:45:00.000Z,1.56
2022-09-04T08:00:00.000Z,1.36
2022-09-04T08:15:00.000Z,1.49
2022-09-04T08:30:00.000Z,1.78
2022-09-04T08:45:00.000Z,1.46
2022-09-04T09:00:00.000Z,1.69
2022-09-04T09:15:00.000Z,1.26
2022-09-04T09:30:00.000Z,1.62
2022-09-04T09:45:00.000Z,1.24
2022-09-04T10:00:00.000Z,1.35
2022-09-04T10:15:00.000Z,1.32
2022-09-04T10:30:00.000Z,1.95
2022-09-04T10:45:00.000Z,2.42
2022-09-04T11:00:00.000Z,2.29
2022-09-04T11:15:00.000Z,4.42
2022-09-04T11:30:00.000Z,3.24
2022-09-04T11:45:00.000Z,3.02
2022-09-04T12:00:00.000Z,3.05
2022-09-04T12:15:00.000Z,1.92
2022-09-04T12:30:00.000Z,2.4
2022-09-04T12:45:00.000Z,2.79
2022-09-04T13:00:00.000Z,2.62
2022-09-04T13:15:00.000Z,2.33
2022-09-04T13:30:00.000Z,2.34
2022-09-04T13:45:00.000Z,3.54
2022-09-04T14:00:00.000Z,3.84
2022-09-04T14:15:00.000Z,2.62
2022-09-04T14:30:00.000Z,2.8
2022-09-04T14:45:00.000Z,3
2022-09-04T15:15:00.000Z,2
2022-09-04T15:15:00.000Z,2.44
2022-09-04T15:30:00.000Z,2.79
2022-09-04T15:45:00.000Z,2.41
2022-09-04T16:00:00.000Z,2.96
2022-09-04T16:15:00.000Z,2.55
2022-09-04T16:30:00.000Z,2.55
2022-09-04T16:45:00.000Z,3.01
2022-09-04T17:00:00.000Z,4.04
2022-09-04T17:15:00.000Z,3.53
2022-09-04T17:30:00.000Z,4.11
2022-09-04T17:45:00.000Z,4.81
2022-09-04T18:00:00.000Z,10.12
2022-09-04T18:15:00.000Z,6.76
2022-09-04T18:30:00.000Z,6.75
2022-09-04T18:45:00.000Z,5.51
2022-09-04T19:00:00.000Z,6.73
2022-09-04T19:15:00.000Z,13.76
2022-09-04T19:30:00.000Z,17.76
2022-09-04T19:45:00.000Z,7.65
2022-09-04T20:00:00.000Z,5.36
2022-09-04T20:15:00.000Z,4.72
2022-09-04T20:30:00.000Z,5.09
2022-09-04T20:45:00.000Z,5.76
2022-09-04T21:00:00.000Z,5.34
2022-09-04T21:15:00.000Z,4.88
2022-09-04T21:30:00.000Z,6.14
2022-09-04T21:45:00.000Z,5.66
2022-09-04T22:00:00.000Z,5.58
2022-09-04T22:15:00.000Z,5.88
2022-09-04T22:30:00.000Z,6.41
2022-09-04T22:45:00.000Z,6.35
2022-09-04T23:00:00.000Z,6.75
2022-09-04T23:15:00.000Z,6.73
2022-09-04T23:30:00.000Z,6.04
2022-09-04T23:45:00.000Z,5.61
